AirSardinia Virtual Manager

AirSardinia Virtual La prima compagnia sarda di volo simulato




 METAR AND TAF INFORMATION
METAR FOR LIPQ
ADDS - METARS form results

(0447 UTC 23 August 2019)
Data provider http://aviationweather.gov/metar/data/
 
METAR text: LIPQ 230420Z 03007KT 9999 -TSRA SCT040CB BKN090 20/19 Q1020
Conditions at: LIPQ (RONCHI LEGIONARI, IT) observed 0420 UTC 23 August 2019
Temperature: 20.0°C (68°F)
Dewpoint: 19.0°C (66°F) [RH = 94%]
Pressure (altimeter): 30.12 inches Hg (1020.0 mb)
Winds: from the NNE (30 degrees) at 8 MPH (7 knots; 3.6 m/s)
Visibility: 6 or more miles (10+ km)
Ceiling: 9000 feet AGL
Clouds: scattered clouds at 4000 feet AGL
broken clouds at 9000 feet AGL
Weather: -TSRA  (light rain associated with thunderstorm(s))

METAR text: LIPQ 230350Z AUTO 04007KT 9999 -RA OVC098/// 20/19 Q1021 RERA
Conditions at: LIPQ (RONCHI LEGIONARI, IT) observed 0350 UTC 23 August 2019
Temperature: 20.0°C (68°F)
Dewpoint: 19.0°C (66°F) [RH = 94%]
Pressure (altimeter): 30.15 inches Hg (1021.0 mb)
Winds: from the NE (40 degrees) at 8 MPH (7 knots; 3.6 m/s)
Visibility: 6 or more miles (10+ km)
Ceiling: 9800 feet AGL
Clouds: overcast cloud deck at 9800 feet AGL
Weather: -RA  (light rain)

Forecast for: AMD
Text: TAF AMD LIPQ 230145Z 2301/2324 08010KT 9999 SCT040
Forecast period: 0100 UTC 23 August 2019 to 0000 UTC 24 August 2019
Forecast type: FROM: standard forecast or significant change
Winds: from the E (80 degrees) at 12 MPH (10 knots; 5.1 m/s)
Visibility: 6 or more miles 10+ km)
Ceiling: at least 12,000 feet AGL
Clouds: scattered clouds at 4000 feet AGL
Weather: no significant weather forecast for this period
Text: TEMPO 2302/2306 TSRA
Forecast period: 0200 to 0600 UTC 23 August 2019
Forecast type: TEMPORARY: The following changes expected for less than half the time period
Visibility: missing
Ceiling: unknown
Clouds: missing
Weather: TSRA  (rain associated with thunderstorm(s))
Text: TEMPO 2312/2318 TSRA
Forecast period: 1200 to 1800 UTC 23 August 2019
Forecast type: TEMPORARY: The following changes expected for less than half the time period
Visibility: missing
Ceiling: unknown
Clouds: missing
Weather: TSRA  (rain associated with thunderstorm(s))

 AIRPORT MAP

 RUNWAY INFORMATION
Runway 09 Runway length 9843 ft Runway width 148 ft
Runway elevation 37 ft Runway displaced threshold 656 ft Runway heading 90
Runway 27 Runway length 9843 ft Runway width 148 ft
Runway elevation 36 ft Runway displaced threshold 0 ft Runway heading 270

 AIRPORT FREQUENCIES
Type APP Name APP Frequency 119.175 MHz
Type TWR Name TWR Frequency 130.2 MHz

 AIRPORT NEAR NAVIGATION AIDS
Type VOR-DME Name Ronchi Frequency 114.2 MHz
Type NDB Name Ronchi Frequency 396 kHz